sensor_id;sensor_type;location;lat;lon;timestamp;pressure;altitude;pressure_sealevel;temperature;humidity
10688;BME280;5392;42.688;23.298;2023-08-06T00:01:25;57352.91;;;-144.48;100.00
10688;BME280;5392;42.688;23.298;2023-08-06T00:03:52;57313.22;;;-144.48;100.00
10688;BME280;5392;42.688;23.298;2023-08-06T00:06:19;57309.06;;;-144.48;100.00
10688;BME280;5392;42.688;23.298;2023-08-06T00:08:46;57313.22;;;-144.48;100.00
10688;BME280;5392;42.688;23.298;2023-08-06T00:11:13;57357.06;;;-144.48;100.00
10688;BME280;5392;42.688;23.298;2023-08-06T00:13:40;57321.59;;;-144.48;100.00
10688;BME280;5392;42.688;23.298;2023-08-06T00:16:11;57380.03;;;-144.48;100.00
10688;BME280;5392;42.688;23.298;2023-08-06T00:18:39;57329.94;;;-144.48;100.00
10688;BME280;5392;42.688;23.298;2023-08-06T00:21:06;57288.19;;;-144.48;100.00
10688;BME280;5392;42.688;23.298;2023-08-06T00:23:32;57309.06;;;-144.48;100.00
10688;BME280;5392;42.688;23.298;2023-08-06T00:25:59;57290.28;;;-144.48;100.00
10688;BME280;5392;42.688;23.298;2023-08-06T00:28:26;57325.75;;;-144.48;100.00
10688;BME280;5392;42.688;23.298;2023-08-06T00:30:54;57277.75;;;-144.48;100.00
10688;BME280;5392;42.688;23.298;2023-08-06T00:33:24;57336.19;;;-144.48;100.00
10688;BME280;5392;42.688;23.298;2023-08-06T00:35:51;57332.03;;;-144.48;100.00
10688;BME280;5392;42.688;23.298;2023-08-06T00:38:18;57286.09;;;-144.48;100.00
10688;BME280;5392;42.688;23.298;2023-08-06T00:40:44;57300.72;;;-144.48;100.00
10688;BME280;5392;42.688;23.298;2023-08-06T00:43:11;57346.63;;;-144.48;100.00
10688;BME280;5392;42.688;23.298;2023-08-06T00:45:38;57306.97;;;-144.48;100.00
10688;BME280;5392;42.688;23.298;2023-08-06T00:48:05;57290.28;;;-144.48;100.00
10688;BME280;5392;42.688;23.298;2023-08-06T00:50:33;57309.06;;;-144.48;100.00
10688;BME280;5392;42.688;23.298;2023-08-06T00:53:00;57309.06;;;-144.48;100.00
10688;BME280;5392;42.688;23.298;2023-08-06T00:55:27;57284.00;;;-144.48;100.00
10688;BME280;5392;42.688;23.298;2023-08-06T00:57:55;57334.09;;;-144.48;100.00
10688;BME280;5392;42.688;23.298;2023-08-06T01:00:24;57319.50;;;-144.48;100.00
10688;BME280;5392;42.688;23.298;2023-08-06T01:02:51;57309.06;;;-144.48;100.00
10688;BME280;5392;42.688;23.298;2023-08-06T01:05:21;57309.06;;;-144.48;100.00
10688;BME280;5392;42.688;23.298;2023-08-06T01:13:25;57359.16;;;-144.48;100.00
10688;BME280;5392;42.688;23.298;2023-08-06T01:15:55;57334.09;;;-144.48;100.00
10688;BME280;5392;42.688;23.298;2023-08-06T01:18:23;57313.22;;;-144.48;100.00
10688;BME280;5392;42.688;23.298;2023-08-06T01:20:50;57336.19;;;-144.48;100.00
10688;BME280;5392;42.688;23.298;2023-08-06T01:23:18;57334.09;;;-144.48;100.00
10688;BME280;5392;42.688;23.298;2023-08-06T01:25:49;57342.47;;;-144.48;100.00
10688;BME280;5392;42.688;23.298;2023-08-06T01:29:03;57306.97;;;-144.48;100.00
10688;BME280;5392;42.688;23.298;2023-08-06T01:31:36;57317.41;;;-144.48;100.00
10688;BME280;5392;42.688;23.298;2023-08-06T01:34:07;57327.84;;;-144.48;100.00
10688;BME280;5392;42.688;23.298;2023-08-06T01:36:35;57332.03;;;-144.48;100.00
10688;BME280;5392;42.688;23.298;2023-08-06T01:39:04;57388.38;;;-144.48;100.00
10688;BME280;5392;42.688;23.298;2023-08-06T01:41:31;57344.53;;;-144.48;100.00
10688;BME280;5392;42.688;23.298;2023-08-06T01:43:58;57329.94;;;-144.48;100.00
10688;BME280;5392;42.688;23.298;2023-08-06T01:46:24;57275.66;;;-144.48;100.00
10688;BME280;5392;42.688;23.298;2023-08-06T01:48:51;57284.00;;;-144.48;100.00
10688;BME280;5392;42.688;23.298;2023-08-06T01:51:18;57298.63;;;-144.48;100.00
10688;BME280;5392;42.688;23.298;2023-08-06T01:53:45;57336.19;;;-144.48;100.00
10688;BME280;5392;42.688;23.298;2023-08-06T01:56:11;57342.47;;;-144.48;100.00
10688;BME280;5392;42.688;23.298;2023-08-06T01:58:38;57306.97;;;-144.48;100.00
10688;BME280;5392;42.688;23.298;2023-08-06T02:01:05;57281.94;;;-144.48;100.00
10688;BME280;5392;42.688;23.298;2023-08-06T02:03:32;57325.75;;;-144.48;100.00
10688;BME280;5392;42.688;23.298;2023-08-06T02:05:59;57317.41;;;-144.48;100.00
10688;BME280;5392;42.688;23.298;2023-08-06T02:08:27;57317.41;;;-144.48;100.00
10688;BME280;5392;42.688;23.298;2023-08-06T02:10:53;57296.53;;;-144.48;100.00
10688;BME280;5392;42.688;23.298;2023-08-06T02:13:20;57290.28;;;-144.48;100.00
10688;BME280;5392;42.688;23.298;2023-08-06T02:15:47;57311.16;;;-144.48;100.00
10688;BME280;5392;42.688;23.298;2023-08-06T02:18:15;57359.16;;;-144.48;100.00
10688;BME280;5392;42.688;23.298;2023-08-06T02:20:42;57325.75;;;-144.48;100.00
10688;BME280;5392;42.688;23.298;2023-08-06T02:23:09;57290.28;;;-144.48;100.00
10688;BME280;5392;42.688;23.298;2023-08-06T02:25:35;57304.88;;;-144.48;100.00
10688;BME280;5392;42.688;23.298;2023-08-06T02:28:02;57284.00;;;-144.48;100.00
10688;BME280;5392;42.688;23.298;2023-08-06T02:30:29;57298.63;;;-144.48;100.00
10688;BME280;5392;42.688;23.298;2023-08-06T02:32:57;57340.38;;;-144.48;100.00
10688;BME280;5392;42.688;23.298;2023-08-06T02:35:23;57288.19;;;-144.48;100.00
10688;BME280;5392;42.688;23.298;2023-08-06T02:37:50;57294.44;;;-144.48;100.00
10688;BME280;5392;42.688;23.298;2023-08-06T02:40:17;57286.09;;;-144.48;100.00
10688;BME280;5392;42.688;23.298;2023-08-06T02:42:43;57302.81;;;-144.48;100.00
10688;BME280;5392;42.688;23.298;2023-08-06T02:45:10;57313.22;;;-144.48;100.00
10688;BME280;5392;42.688;23.298;2023-08-06T02:47:37;57298.63;;;-144.48;100.00
10688;BME280;5392;42.688;23.298;2023-08-06T02:50:04;57325.75;;;-144.48;100.00
10688;BME280;5392;42.688;23.298;2023-08-06T02:52:31;57340.38;;;-144.48;100.00
10688;BME280;5392;42.688;23.298;2023-08-06T02:54:58;57325.75;;;-144.48;100.00
10688;BME280;5392;42.688;23.298;2023-08-06T02:57:26;57296.53;;;-144.48;100.00
10688;BME280;5392;42.688;23.298;2023-08-06T02:59:53;57350.81;;;-144.48;100.00
10688;BME280;5392;42.688;23.298;2023-08-06T03:02:20;57319.50;;;-144.48;100.00
10688;BME280;5392;42.688;23.298;2023-08-06T03:04:47;57313.22;;;-144.48;100.00
10688;BME280;5392;42.688;23.298;2023-08-06T03:07:13;57361.25;;;-144.48;100.00
10688;BME280;5392;42.688;23.298;2023-08-06T03:09:40;57327.84;;;-144.48;100.00
10688;BME280;5392;42.688;23.298;2023-08-06T03:12:07;57357.06;;;-144.48;100.00
10688;BME280;5392;42.688;23.298;2023-08-06T03:14:34;57352.91;;;-144.48;100.00
10688;BME280;5392;42.688;23.298;2023-08-06T03:17:01;57334.09;;;-144.48;100.00
10688;BME280;5392;42.688;23.298;2023-08-06T03:19:27;57321.59;;;-144.48;100.00
10688;BME280;5392;42.688;23.298;2023-08-06T03:21:54;57327.84;;;-144.48;100.00
10688;BME280;5392;42.688;23.298;2023-08-06T03:24:21;57340.38;;;-144.48;100.00
10688;BME280;5392;42.688;23.298;2023-08-06T03:26:48;57359.16;;;-144.48;100.00
10688;BME280;5392;42.688;23.298;2023-08-06T03:29:14;57311.16;;;-144.48;100.00
10688;BME280;5392;42.688;23.298;2023-08-06T03:31:41;57348.72;;;-144.48;100.00
10688;BME280;5392;42.688;23.298;2023-08-06T03:34:08;57365.41;;;-144.48;100.00
10688;BME280;5392;42.688;23.298;2023-08-06T03:36:35;57313.22;;;-144.48;100.00
10688;BME280;5392;42.688;23.298;2023-08-06T03:39:01;57357.06;;;-144.48;100.00
10688;BME280;5392;42.688;23.298;2023-08-06T03:41:28;57365.41;;;-144.48;100.00
10688;BME280;5392;42.688;23.298;2023-08-06T03:43:55;57325.75;;;-144.48;100.00
10688;BME280;5392;42.688;23.298;2023-08-06T03:46:21;57317.41;;;-144.48;100.00
10688;BME280;5392;42.688;23.298;2023-08-06T03:48:48;57325.75;;;-144.48;100.00
10688;BME280;5392;42.688;23.298;2023-08-06T03:51:15;57323.66;;;-144.48;100.00
10688;BME280;5392;42.688;23.298;2023-08-06T03:53:42;57319.50;;;-144.48;100.00
10688;BME280;5392;42.688;23.298;2023-08-06T03:56:08;57361.25;;;-144.48;100.00
10688;BME280;5392;42.688;23.298;2023-08-06T03:58:35;57323.66;;;-144.48;100.00
10688;BME280;5392;42.688;23.298;2023-08-06T04:01:03;57371.69;;;-144.48;100.00
10688;BME280;5392;42.688;23.298;2023-08-06T04:03:30;57286.09;;;-144.48;100.00
10688;BME280;5392;42.688;23.298;2023-08-06T04:05:57;57342.47;;;-144.48;100.00
10688;BME280;5392;42.688;23.298;2023-08-06T04:08:24;57313.22;;;-144.48;100.00
10688;BME280;5392;42.688;23.298;2023-08-06T04:10:54;57348.72;;;-144.48;100.00
10688;BME280;5392;42.688;23.298;2023-08-06T04:13:20;57323.66;;;-144.48;100.00
10688;BME280;5392;42.688;23.298;2023-08-06T04:15:48;57309.06;;;-144.48;100.00
10688;BME280;5392;42.688;23.298;2023-08-06T04:18:15;57313.22;;;-144.48;100.00
10688;BME280;5392;42.688;23.298;2023-08-06T04:20:45;57321.59;;;-144.48;100.00
10688;BME280;5392;42.688;23.298;2023-08-06T04:23:13;57332.03;;;-144.48;100.00
10688;BME280;5392;42.688;23.298;2023-08-06T04:25:40;57348.72;;;-144.48;100.00
10688;BME280;5392;42.688;23.298;2023-08-06T04:28:07;57300.72;;;-144.48;100.00
10688;BME280;5392;42.688;23.298;2023-08-06T04:30:34;57334.09;;;-144.48;100.00
10688;BME280;5392;42.688;23.298;2023-08-06T04:33:00;57338.28;;;-144.48;100.00
10688;BME280;5392;42.688;23.298;2023-08-06T04:35:27;57302.81;;;-144.48;100.00
10688;BME280;5392;42.688;23.298;2023-08-06T04:37:54;57354.97;;;-144.48;100.00
10688;BME280;5392;42.688;23.298;2023-08-06T04:40:21;57363.31;;;-144.48;100.00
10688;BME280;5392;42.688;23.298;2023-08-06T04:42:48;57315.31;;;-144.48;100.00
10688;BME280;5392;42.688;23.298;2023-08-06T04:45:15;57281.94;;;-144.48;100.00
10688;BME280;5392;42.688;23.298;2023-08-06T04:47:41;57359.16;;;-144.48;100.00
10688;BME280;5392;42.688;23.298;2023-08-06T04:50:09;57367.50;;;-144.48;100.00
10688;BME280;5392;42.688;23.298;2023-08-06T04:52:37;57342.47;;;-144.48;100.00
10688;BME280;5392;42.688;23.298;2023-08-06T04:55:04;57315.31;;;-144.48;100.00
10688;BME280;5392;42.688;23.298;2023-08-06T04:57:32;57315.31;;;-144.48;100.00
10688;BME280;5392;42.688;23.298;2023-08-06T04:59:59;57365.41;;;-144.48;100.00
10688;BME280;5392;42.688;23.298;2023-08-06T05:02:26;57354.97;;;-144.48;100.00
10688;BME280;5392;42.688;23.298;2023-08-06T05:04:53;57315.31;;;-144.48;100.00
10688;BME280;5392;42.688;23.298;2023-08-06T05:07:19;57298.63;;;-144.48;100.00
10688;BME280;5392;42.688;23.298;2023-08-06T05:09:46;57325.75;;;-144.48;100.00
10688;BME280;5392;42.688;23.298;2023-08-06T05:12:13;57309.06;;;-144.48;100.00
10688;BME280;5392;42.688;23.298;2023-08-06T05:14:40;57317.41;;;-144.48;100.00
10688;BME280;5392;42.688;23.298;2023-08-06T05:17:06;57309.06;;;-144.48;92.41
10688;BME280;5392;42.688;23.298;2023-08-06T05:19:33;57271.50;;;-144.48;84.78
10688;BME280;5392;42.688;23.298;2023-08-06T05:22:00;57261.06;;;-144.48;70.42
10688;BME280;5392;42.688;23.298;2023-08-06T05:24:28;57223.50;;;-144.48;59.49
10688;BME280;5392;42.688;23.298;2023-08-06T05:26:54;57254.78;;;-144.48;56.88
10688;BME280;5392;42.688;23.298;2023-08-06T05:29:21;57246.44;;;-144.48;57.25
10688;BME280;5392;42.688;23.298;2023-08-06T05:31:48;57250.63;;;-144.48;56.71
10688;BME280;5392;42.688;23.298;2023-08-06T05:34:14;57261.06;;;-144.48;55.79
10688;BME280;5392;42.688;23.298;2023-08-06T05:36:41;57229.75;;;-144.48;54.89
10688;BME280;5392;42.688;23.298;2023-08-06T05:39:08;57192.19;;;-144.48;52.90
10688;BME280;5392;42.688;23.298;2023-08-06T05:41:35;57213.06;;;-144.48;51.43
10688;BME280;5392;42.688;23.298;2023-08-06T05:44:01;57225.56;;;-144.48;53.00
10688;BME280;5392;42.688;23.298;2023-08-06T05:46:30;57258.97;;;-144.48;55.80
10688;BME280;5392;42.688;23.298;2023-08-06T05:48:57;57221.41;;;-144.48;54.53
10688;BME280;5392;42.688;23.298;2023-08-06T05:51:26;57325.75;;;-144.48;56.52
10688;BME280;5392;42.688;23.298;2023-08-06T05:53:53;57238.09;;;-144.48;60.06
10688;BME280;5392;42.688;23.298;2023-08-06T05:56:19;57254.78;;;-144.48;59.92
10688;BME280;5392;42.688;23.298;2023-08-06T05:58:46;57246.44;;;-144.48;56.25
10688;BME280;5392;42.688;23.298;2023-08-06T06:01:14;57238.09;;;-144.48;52.00
10688;BME280;5392;42.688;23.298;2023-08-06T06:03:40;57190.09;;;-144.48;50.91
10688;BME280;5392;42.688;23.298;2023-08-06T06:06:08;57215.13;;;-144.48;48.29
10688;BME280;5392;42.688;23.298;2023-08-06T06:08:34;57171.31;;;-144.48;48.28
10688;BME280;5392;42.688;23.298;2023-08-06T06:11:01;57202.63;;;-144.48;49.21
10688;BME280;5392;42.688;23.298;2023-08-06T06:13:28;57236.00;;;-144.48;50.84
10688;BME280;5392;42.688;23.298;2023-08-06T06:15:55;57198.44;;;-144.48;50.63
10688;BME280;5392;42.688;23.298;2023-08-06T06:18:22;57227.66;;;-144.48;49.36
10688;BME280;5392;42.688;23.298;2023-08-06T06:20:49;57198.44;;;-144.48;49.05
10688;BME280;5392;42.688;23.298;2023-08-06T06:23:16;57192.19;;;-144.48;49.41
10688;BME280;5392;42.688;23.298;2023-08-06T06:25:43;57221.41;;;-144.48;47.96
10688;BME280;5392;42.688;23.298;2023-08-06T06:28:13;57200.53;;;-144.48;47.88
10688;BME280;5392;42.688;23.298;2023-08-06T06:30:42;57223.50;;;-144.48;48.02
10688;BME280;5392;42.688;23.298;2023-08-06T06:33:09;57269.41;;;-144.48;51.27
10688;BME280;5392;42.688;23.298;2023-08-06T06:35:36;57238.09;;;-144.48;54.56
10688;BME280;5392;42.688;23.298;2023-08-06T06:38:03;57309.06;;;-144.48;58.13
10688;BME280;5392;42.688;23.298;2023-08-06T06:40:30;57275.66;;;-144.48;59.89
10688;BME280;5392;42.688;23.298;2023-08-06T06:42:57;57290.28;;;-144.48;62.86
10688;BME280;5392;42.688;23.298;2023-08-06T06:45:24;57311.16;;;-144.48;67.04
10688;BME280;5392;42.688;23.298;2023-08-06T06:47:50;57300.72;;;-144.48;70.87
10688;BME280;5392;42.688;23.298;2023-08-06T06:50:17;57334.09;;;-144.48;73.19
10688;BME280;5392;42.688;23.298;2023-08-06T06:52:44;57329.94;;;-144.48;76.45
10688;BME280;5392;42.688;23.298;2023-08-06T06:55:10;57332.03;;;-144.48;76.30
10688;BME280;5392;42.688;23.298;2023-08-06T06:57:37;57319.50;;;-144.48;75.38
10688;BME280;5392;42.688;23.298;2023-08-06T07:00:04;57321.59;;;-144.48;73.28
10688;BME280;5392;42.688;23.298;2023-08-06T07:02:32;57302.81;;;-144.48;69.03
10688;BME280;5392;42.688;23.298;2023-08-06T07:04:59;57292.38;;;-144.48;62.89
10688;BME280;5392;42.688;23.298;2023-08-06T07:07:25;57279.84;;;-144.48;61.77
10688;BME280;5392;42.688;23.298;2023-08-06T07:09:52;57288.19;;;-144.48;61.09
10688;BME280;5392;42.688;23.298;2023-08-06T07:12:19;57317.41;;;-144.48;60.47
10688;BME280;5392;42.688;23.298;2023-08-06T07:14:46;57277.75;;;-144.48;54.92
10688;BME280;5392;42.688;23.298;2023-08-06T07:17:12;57279.84;;;-144.48;53.94
10688;BME280;5392;42.688;23.298;2023-08-06T07:19:39;57269.41;;;-144.48;53.40
10688;BME280;5392;42.688;23.298;2023-08-06T07:22:06;57248.53;;;-144.48;51.26
10688;BME280;5392;42.688;23.298;2023-08-06T07:24:33;57221.41;;;-144.48;48.77
10688;BME280;5392;42.688;23.298;2023-08-06T07:27:00;57229.75;;;-144.48;47.79
10688;BME280;5392;42.688;23.298;2023-08-06T07:29:27;57221.41;;;-144.48;47.19
10688;BME280;5392;42.688;23.298;2023-08-06T07:31:54;57229.75;;;-144.48;46.41
10688;BME280;5392;42.688;23.298;2023-08-06T07:34:22;57246.44;;;-144.48;49.20
10688;BME280;5392;42.688;23.298;2023-08-06T07:36:48;57275.66;;;-144.48;49.34
10688;BME280;5392;42.688;23.298;2023-08-06T07:39:15;57192.19;;;-144.48;47.52
10688;BME280;5392;42.688;23.298;2023-08-06T07:41:43;57200.53;;;-144.48;46.34
10688;BME280;5392;42.688;23.298;2023-08-06T07:44:12;57219.31;;;-144.48;47.27
10688;BME280;5392;42.688;23.298;2023-08-06T07:46:38;57202.63;;;-144.48;47.06
10688;BME280;5392;42.688;23.298;2023-08-06T07:49:05;57227.66;;;-144.48;45.50
10688;BME280;5392;42.688;23.298;2023-08-06T07:51:32;57202.63;;;-144.48;45.63
10688;BME280;5392;42.688;23.298;2023-08-06T07:53:59;57200.53;;;-144.48;44.79
10688;BME280;5392;42.688;23.298;2023-08-06T07:56:26;57179.66;;;-144.48;43.94
10688;BME280;5392;42.688;23.298;2023-08-06T07:58:52;57233.91;;;-144.48;45.58
10688;BME280;5392;42.688;23.298;2023-08-06T08:01:19;57217.22;;;-144.48;47.13
10688;BME280;5392;42.688;23.298;2023-08-06T08:03:46;57198.44;;;-144.48;46.40
10688;BME280;5392;42.688;23.298;2023-08-06T08:06:12;57250.63;;;-144.48;48.17
10688;BME280;5392;42.688;23.298;2023-08-06T08:08:39;57217.22;;;-144.48;50.59
10688;BME280;5392;42.688;23.298;2023-08-06T08:11:06;57227.66;;;-144.48;49.84
10688;BME280;5392;42.688;23.298;2023-08-06T08:13:33;57279.84;;;-144.48;48.80
10688;BME280;5392;42.688;23.298;2023-08-06T08:16:01;57279.84;;;-144.48;49.83
10688;BME280;5392;42.688;23.298;2023-08-06T08:18:28;57256.88;;;-144.48;49.08
10688;BME280;5392;42.688;23.298;2023-08-06T08:20:54;57258.97;;;-144.48;51.22
10688;BME280;5392;42.688;23.298;2023-08-06T08:23:21;57254.78;;;-144.48;50.56
10688;BME280;5392;42.688;23.298;2023-08-06T08:25:48;57265.22;;;-144.48;51.52
10688;BME280;5392;42.688;23.298;2023-08-06T08:28:15;57288.19;;;-144.48;52.57
10688;BME280;5392;42.688;23.298;2023-08-06T08:30:42;57302.81;;;-144.48;52.22
10688;BME280;5392;42.688;23.298;2023-08-06T08:33:09;57321.59;;;-144.48;52.46
10688;BME280;5392;42.688;23.298;2023-08-06T08:35:36;57281.94;;;-144.48;53.35
10688;BME280;5392;42.688;23.298;2023-08-06T08:38:04;57327.84;;;-144.48;53.73
10688;BME280;5392;42.688;23.298;2023-08-06T08:40:32;57294.44;;;-144.48;52.34
10688;BME280;5392;42.688;23.298;2023-08-06T08:43:00;57298.63;;;-144.48;52.67
10688;BME280;5392;42.688;23.298;2023-08-06T08:45:28;57286.09;;;-144.48;53.53
10688;BME280;5392;42.688;23.298;2023-08-06T08:47:56;57292.38;;;-144.48;53.68
10688;BME280;5392;42.688;23.298;2023-08-06T08:50:23;57271.50;;;-144.48;52.45
10688;BME280;5392;42.688;23.298;2023-08-06T08:52:50;57306.97;;;-144.48;52.86
10688;BME280;5392;42.688;23.298;2023-08-06T08:55:17;57336.19;;;-144.48;52.40
10688;BME280;5392;42.688;23.298;2023-08-06T08:57:44;57311.16;;;-144.48;52.75
10688;BME280;5392;42.688;23.298;2023-08-06T09:00:11;57250.63;;;-144.48;51.40
10688;BME280;5392;42.688;23.298;2023-08-06T09:02:41;57300.72;;;-144.48;53.22
10688;BME280;5392;42.688;23.298;2023-08-06T09:05:09;57302.81;;;-144.48;54.08
10688;BME280;5392;42.688;23.298;2023-08-06T09:07:41;57273.56;;;-144.48;55.78
10688;BME280;5392;42.688;23.298;2023-08-06T09:10:11;57281.94;;;-144.48;55.60
10688;BME280;5392;42.688;23.298;2023-08-06T09:12:40;57294.44;;;-144.48;53.84
10688;BME280;5392;42.688;23.298;2023-08-06T09:15:08;57321.59;;;-144.48;54.28
10688;BME280;5392;42.688;23.298;2023-08-06T09:17:36;57321.59;;;-144.48;54.16
10688;BME280;5392;42.688;23.298;2023-08-06T09:20:13;57294.44;;;-144.48;54.25
10688;BME280;5392;42.688;23.298;2023-08-06T09:22:40;57306.97;;;-144.48;54.61
10688;BME280;5392;42.688;23.298;2023-08-06T09:25:08;57300.72;;;-144.48;53.85
10688;BME280;5392;42.688;23.298;2023-08-06T09:27:40;57300.72;;;-144.48;53.54
10688;BME280;5392;42.688;23.298;2023-08-06T09:30:07;57244.34;;;-144.48;52.83
10688;BME280;5392;42.688;23.298;2023-08-06T09:32:47;57292.38;;;-144.48;51.22
10688;BME280;5392;42.688;23.298;2023-08-06T09:35:16;57265.22;;;-144.48;50.99
10688;BME280;5392;42.688;23.298;2023-08-06T09:37:43;57321.59;;;-144.48;50.70
10688;BME280;5392;42.688;23.298;2023-08-06T09:40:30;57273.56;;;-144.48;51.42
10688;BME280;5392;42.688;23.298;2023-08-06T09:42:58;57292.38;;;-144.48;51.85
10688;BME280;5392;42.688;23.298;2023-08-06T09:45:30;57309.06;;;-144.48;51.42
10688;BME280;5392;42.688;23.298;2023-08-06T09:47:58;57309.06;;;-144.48;51.17
10688;BME280;5392;42.688;23.298;2023-08-06T09:50:29;57227.66;;;-144.48;50.31
10688;BME280;5392;42.688;23.298;2023-08-06T09:53:00;57296.53;;;-144.48;50.89
10688;BME280;5392;42.688;23.298;2023-08-06T09:55:27;57279.84;;;-144.48;50.56
10688;BME280;5392;42.688;23.298;2023-08-06T09:57:55;57279.84;;;-144.48;50.56
10688;BME280;5392;42.688;23.298;2023-08-06T10:00:22;57269.41;;;-144.48;50.75
10688;BME280;5392;42.688;23.298;2023-08-06T10:02:49;57315.31;;;-144.48;51.30
10688;BME280;5392;42.688;23.298;2023-08-06T10:05:20;57279.84;;;-144.48;51.21
10688;BME280;5392;42.688;23.298;2023-08-06T10:07:48;57300.72;;;-144.48;51.34
10688;BME280;5392;42.688;23.298;2023-08-06T10:10:15;57306.97;;;-144.48;51.74
10688;BME280;5392;42.688;23.298;2023-08-06T10:12:46;57286.09;;;-144.48;51.49
10688;BME280;5392;42.688;23.298;2023-08-06T10:15:17;57317.41;;;-144.48;52.17
10688;BME280;5392;42.688;23.298;2023-08-06T10:17:50;57323.66;;;-144.48;52.15
10688;BME280;5392;42.688;23.298;2023-08-06T10:20:18;57313.22;;;-144.48;51.87
10688;BME280;5392;42.688;23.298;2023-08-06T10:22:59;57277.75;;;-144.48;52.58
10688;BME280;5392;42.688;23.298;2023-08-06T10:25:26;57352.91;;;-144.48;52.57
10688;BME280;5392;42.688;23.298;2023-08-06T10:27:54;57313.22;;;-144.48;52.17
10688;BME280;5392;42.688;23.298;2023-08-06T10:30:29;57258.97;;;-144.48;52.18
10688;BME280;5392;42.688;23.298;2023-08-06T10:33:01;57317.41;;;-144.48;52.93
10688;BME280;5392;42.688;23.298;2023-08-06T10:35:41;57327.84;;;-144.48;53.75
10688;BME280;5392;42.688;23.298;2023-08-06T10:40:41;57329.94;;;-144.48;54.13
10688;BME280;5392;42.688;23.298;2023-08-06T10:43:25;57298.63;;;-144.48;54.78
10688;BME280;5392;42.688;23.298;2023-08-06T10:45:52;57298.63;;;-144.48;55.01
10688;BME280;5392;42.688;23.298;2023-08-06T10:51:01;57321.59;;;-144.48;54.70
10688;BME280;5392;42.688;23.298;2023-08-06T10:53:33;57319.50;;;-144.48;55.21
10688;BME280;5392;42.688;23.298;2023-08-06T10:56:01;57317.41;;;-144.48;55.04
10688;BME280;5392;42.688;23.298;2023-08-06T10:58:32;57321.59;;;-144.48;54.74
10688;BME280;5392;42.688;23.298;2023-08-06T11:01:00;57327.84;;;-144.48;54.67
10688;BME280;5392;42.688;23.298;2023-08-06T11:03:27;57277.75;;;-144.48;54.57
10688;BME280;5392;42.688;23.298;2023-08-06T11:05:54;57340.38;;;-144.48;54.41
10688;BME280;5392;42.688;23.298;2023-08-06T11:08:29;57292.38;;;-144.48;53.47
10688;BME280;5392;42.688;23.298;2023-08-06T11:11:07;57304.88;;;-144.48;53.68
10688;BME280;5392;42.688;23.298;2023-08-06T11:13:35;57317.41;;;-144.48;55.04
10688;BME280;5392;42.688;23.298;2023-08-06T11:16:02;57315.31;;;-144.48;56.11
10688;BME280;5392;42.688;23.298;2023-08-06T11:18:29;57325.75;;;-144.48;56.88
10688;BME280;5392;42.688;23.298;2023-08-06T11:20:58;57323.66;;;-144.48;57.51
10688;BME280;5392;42.688;23.298;2023-08-06T11:23:29;57306.97;;;-144.48;58.50
10688;BME280;5392;42.688;23.298;2023-08-06T11:25:56;57300.72;;;-144.48;58.31
10688;BME280;5392;42.688;23.298;2023-08-06T11:28:24;57332.03;;;-144.48;59.74
10688;BME280;5392;42.688;23.298;2023-08-06T11:30:51;57327.84;;;-144.48;58.43
10688;BME280;5392;42.688;23.298;2023-08-06T11:33:25;57298.63;;;-144.48;57.59
10688;BME280;5392;42.688;23.298;2023-08-06T11:35:55;57311.16;;;-144.48;56.30
10688;BME280;5392;42.688;23.298;2023-08-06T11:38:27;57315.31;;;-144.48;54.97
10688;BME280;5392;42.688;23.298;2023-08-06T11:40:55;57311.16;;;-144.48;53.90
10688;BME280;5392;42.688;23.298;2023-08-06T11:43:22;57357.06;;;-144.48;53.43
10688;BME280;5392;42.688;23.298;2023-08-06T11:45:50;57309.06;;;-144.48;52.93
10688;BME280;5392;42.688;23.298;2023-08-06T11:48:17;57317.41;;;-144.48;52.15
10688;BME280;5392;42.688;23.298;2023-08-06T11:50:44;57284.00;;;-144.48;51.58
10688;BME280;5392;42.688;23.298;2023-08-06T11:53:13;57275.66;;;-144.48;51.22
10688;BME280;5392;42.688;23.298;2023-08-06T11:55:41;57271.50;;;-144.48;51.89
10688;BME280;5392;42.688;23.298;2023-08-06T11:58:09;57277.75;;;-144.48;51.81
10688;BME280;5392;42.688;23.298;2023-08-06T12:00:36;57263.16;;;-144.48;51.91
10688;BME280;5392;42.688;23.298;2023-08-06T12:03:04;57281.94;;;-144.48;51.67
10688;BME280;5392;42.688;23.298;2023-08-06T12:05:32;57267.31;;;-144.48;51.79
10688;BME280;5392;42.688;23.298;2023-08-06T12:08:04;57317.41;;;-144.48;52.25
10688;BME280;5392;42.688;23.298;2023-08-06T12:10:32;57317.41;;;-144.48;52.10
10688;BME280;5392;42.688;23.298;2023-08-06T12:12:59;57300.72;;;-144.48;50.92
10688;BME280;5392;42.688;23.298;2023-08-06T12:15:26;57275.66;;;-144.48;51.47
10688;BME280;5392;42.688;23.298;2023-08-06T12:17:54;57300.72;;;-144.48;52.72
10688;BME280;5392;42.688;23.298;2023-08-06T12:20:21;57292.38;;;-144.48;52.69
10688;BME280;5392;42.688;23.298;2023-08-06T12:22:48;57306.97;;;-144.48;52.71
10688;BME280;5392;42.688;23.298;2023-08-06T12:25:16;57300.72;;;-144.48;51.84
10688;BME280;5392;42.688;23.298;2023-08-06T12:27:44;57296.53;;;-144.48;52.32
10688;BME280;5392;42.688;23.298;2023-08-06T12:30:12;57313.22;;;-144.48;52.47
10688;BME280;5392;42.688;23.298;2023-08-06T12:32:39;57315.31;;;-144.48;52.53
10688;BME280;5392;42.688;23.298;2023-08-06T12:35:07;57325.75;;;-144.48;52.45
10688;BME280;5392;42.688;23.298;2023-08-06T12:37:34;57319.50;;;-144.48;52.25
10688;BME280;5392;42.688;23.298;2023-08-06T12:40:01;57288.19;;;-144.48;52.02
10688;BME280;5392;42.688;23.298;2023-08-06T12:42:50;57281.94;;;-144.48;51.74
10688;BME280;5392;42.688;23.298;2023-08-06T12:45:17;57290.28;;;-144.48;51.23
10688;BME280;5392;42.688;23.298;2023-08-06T12:47:48;57267.31;;;-144.48;50.88
10688;BME280;5392;42.688;23.298;2023-08-06T12:50:16;57273.56;;;-144.48;50.61